Time;durP1;ratioP1;P1;durP2;ratioP2;P2;SDS_P1;SDS_P2;PMS_P1;PMS_P2;Temp;Humidity;BMP_temperature;BMP_pressure;BME280_temperature;BME280_humidity;BME280_pressure;Samples;Min_cycle;Max_cycle;Signal;HPM_P1;HPM_P2
2022/08/11 00:01:54;;;;;;;2.08;1.80;;;22.80;83.40;;;;;;10406499;28;20025;-68
2022/08/11 00:06:55;;;;;;;2.22;1.70;;;22.80;83.40;;;;;;10406276;28;20102;-68
2022/08/11 00:11:57;;;;;;;1.83;1.70;;;22.80;83.50;;;;;;10406322;28;20118;-67
2022/08/11 00:17:11;;;;;;;1.77;1.58;;;22.80;83.50;;;;;;10406389;28;20037;-68
2022/08/11 00:22:20;;;;;;;2.00;1.75;;;22.70;83.50;;;;;;10406448;28;20545;-68
2022/08/11 00:27:34;;;;;;;1.98;1.75;;;22.70;83.60;;;;;;10405996;28;20040;-68
2022/08/11 00:32:37;;;;;;;2.88;1.58;;;22.70;83.60;;;;;;10405731;28;20022;-68
2022/08/11 00:37:40;;;;;;;3.90;1.80;;;22.60;83.60;;;;;;10405808;28;20036;-68
2022/08/11 00:43:19;;;;;;;1.88;1.73;;;22.60;83.70;;;;;;10405346;28;20022;-68
2022/08/11 00:48:43;;;;;;;3.63;1.73;;;22.60;83.70;;;;;;10405491;28;20093;-69
2022/08/11 00:53:55;;;;;;;1.73;1.63;;;22.50;83.70;;;;;;10405318;28;20018;-68
2022/08/11 00:59:08;;;;;;;2.90;2.10;;;22.50;83.80;;;;;;10404917;28;20033;-68
2022/08/11 01:04:54;;;;;;;2.47;1.70;;;22.50;83.70;;;;;;10404673;28;20046;-68
2022/08/11 01:10:13;;;;;;;2.60;1.88;;;22.40;83.70;;;;;;10414489;28;20038;-68
2022/08/11 01:15:38;;;;;;;1.50;1.40;;;22.40;83.80;;;;;;10403330;28;20094;-68
2022/08/11 01:21:03;;;;;;;2.05;1.85;;;22.30;83.80;;;;;;10407198;28;20026;-68
2022/08/11 01:26:34;;;;;;;3.03;1.60;;;22.30;83.80;;;;;;10411586;28;20359;-68
2022/08/11 01:31:46;;;;;;;3.08;1.90;;;22.20;83.80;;;;;;10411488;28;20413;-69
2022/08/11 01:37:09;;;;;;;2.10;1.85;;;22.30;83.90;;;;;;10411214;28;20025;-68
2022/08/11 01:48:06;;;;;;;2.30;1.90;;;22.20;83.90;;;;;;10410790;28;20034;-67
2022/08/11 01:53:11;;;;;;;2.03;1.83;;;22.20;84.00;;;;;;10410595;28;20049;-68
2022/08/11 01:58:22;;;;;;;2.58;1.65;;;22.10;84.00;;;;;;10410902;28;20070;-68
2022/08/11 02:03:43;;;;;;;3.15;1.88;;;22.10;84.00;;;;;;10410883;28;20086;-68
2022/08/11 02:09:21;;;;;;;2.03;1.55;;;22.10;84.20;;;;;;10409233;28;20017;-68
2022/08/11 02:14:43;;;;;;;5.30;2.28;;;22.00;84.10;;;;;;10410049;28;20381;-68
2022/08/11 02:26:06;;;;;;;2.97;2.05;;;21.90;84.20;;;;;;10409678;28;20086;-68
2022/08/11 02:37:13;;;;;;;2.50;1.80;;;21.90;84.40;;;;;;10409590;28;20018;-68
2022/08/11 02:42:29;;;;;;;2.63;1.77;;;21.90;84.40;;;;;;10409006;28;20045;-68
2022/08/11 02:53:23;;;;;;;2.72;1.90;;;21.80;84.50;;;;;;10408438;28;20033;-68
2022/08/11 02:58:30;;;;;;;2.67;1.90;;;21.70;84.50;;;;;;10408513;28;20434;-68
2022/08/11 03:03:59;;;;;;;2.42;2.13;;;21.70;84.50;;;;;;10407051;28;20513;-68
2022/08/11 03:09:05;;;;;;;2.80;2.00;;;21.70;84.60;;;;;;10408131;28;20040;-68
2022/08/11 03:19:52;;;;;;;2.38;1.95;;;21.60;84.60;;;;;;10407774;28;20074;-68
2022/08/11 03:25:01;;;;;;;2.33;1.80;;;21.60;84.60;;;;;;10407945;28;20043;-68
2022/08/11 03:30:05;;;;;;;2.88;1.85;;;21.60;84.70;;;;;;10407603;28;20519;-68
2022/08/11 03:35:08;;;;;;;2.28;1.80;;;21.50;84.60;;;;;;10407278;28;20043;-69
2022/08/11 03:41:41;;;;;;;1.92;1.73;;;21.50;84.70;;;;;;10407446;28;20033;-68
2022/08/11 03:46:21;;;;;;;2.95;1.85;;;21.50;84.80;;;;;;10406697;28;20047;-68
2022/08/11 03:51:28;;;;;;;2.03;1.83;;;21.50;84.80;;;;;;10407183;28;20083;-68
2022/08/11 03:57:14;;;;;;;2.03;1.83;;;21.40;84.70;;;;;;10406806;28;20021;-68
2022/08/11 04:02:46;;;;;;;4.07;1.80;;;21.40;84.80;;;;;;10455524;28;20136;-68
2022/08/11 04:07:59;;;;;;;2.60;2.00;;;21.40;84.90;;;;;;10405229;28;20034;-69
2022/08/11 04:13:25;;;;;;;2.28;1.83;;;21.30;84.80;;;;;;10406258;28;20119;-68
2022/08/11 04:18:49;;;;;;;2.72;1.63;;;21.30;84.90;;;;;;10406090;28;20528;-67
2022/08/11 04:24:07;;;;;;;1.70;1.60;;;21.30;84.90;;;;;;10405855;28;20029;-68
2022/08/11 04:29:24;;;;;;;2.20;1.95;;;21.30;85.00;;;;;;10405912;28;20084;-69
2022/08/11 04:34:48;;;;;;;2.40;2.17;;;21.20;85.00;;;;;;10405019;28;20037;-68
2022/08/11 04:40:26;;;;;;;2.08;1.75;;;21.20;85.00;;;;;;10394823;28;20517;-68
2022/08/11 04:45:48;;;;;;;3.50;2.00;;;20.60;84.70;;;;;;10394960;28;20033;-68
2022/08/11 05:02:45;;;;;;;2.83;2.03;;;21.10;85.00;;;;;;10402541;28;20098;-69
2022/08/11 05:08:03;;;;;;;3.15;1.83;;;21.10;85.10;;;;;;10402715;28;20507;-68
2022/08/11 05:35:04;;;;;;;2.45;1.80;;;21.10;85.30;;;;;;10401796;28;20030;-69
2022/08/11 05:56:17;;;;;;;2.35;2.00;;;21.00;85.20;;;;;;10401965;28;20022;-60
2022/08/11 06:01:27;;;;;;;2.50;2.17;;;21.10;85.30;;;;;;10401180;28;20028;-67
2022/08/11 06:06:29;;;;;;;2.70;1.70;;;21.00;85.30;;;;;;10400273;28;20493;-69
2022/08/11 06:11:35;;;;;;;2.92;2.08;;;21.00;85.30;;;;;;10400735;28;20037;-66
2022/08/11 06:16:39;;;;;;;2.67;1.90;;;21.00;85.30;;;;;;10401894;28;20042;-67
2022/08/11 06:21:45;;;;;;;2.70;2.00;;;21.00;85.40;;;;;;10400982;28;20030;-66
2022/08/11 06:26:53;;;;;;;1.63;1.52;;;21.00;85.40;;;;;;10400482;28;20121;-66
2022/08/11 06:31:59;;;;;;;1.88;1.67;;;21.00;85.40;;;;;;10400667;28;20033;-65
2022/08/11 06:37:42;;;;;;;2.08;1.70;;;21.00;85.40;;;;;;10400350;28;20030;-67
2022/08/11 06:43:17;;;;;;;1.73;1.60;;;21.00;85.40;;;;;;10405131;28;20378;-67
2022/08/11 06:48:21;;;;;;;2.03;1.83;;;21.00;85.40;;;;;;10399930;28;20036;-66
2022/08/11 06:53:22;;;;;;;2.75;1.50;;;21.00;85.20;;;;;;10398737;28;20119;-66
2022/08/11 07:04:04;;;;;;;2.13;1.75;;;21.00;85.10;;;;;;10399447;28;20049;-66
2022/08/11 07:31:07;;;;;;;2.13;1.63;;;21.20;85.00;;;;;;10398490;28;20452;-66
2022/08/11 07:36:11;;;;;;;2.40;1.63;;;21.20;85.00;;;;;;10398217;28;20415;-66
2022/08/11 07:41:14;;;;;;;2.83;1.88;;;21.20;84.90;;;;;;10397976;28;20526;-67
2022/08/11 07:56:57;;;;;;;2.85;1.80;;;21.30;84.70;;;;;;10397462;28;20576;-67
2022/08/11 08:18:04;;;;;;;3.63;1.60;;;21.50;84.50;;;;;;10396447;28;20492;-68
2022/08/11 08:23:07;;;;;;;2.88;1.70;;;21.50;84.40;;;;;;10395568;28;20026;-67
2022/08/11 08:28:16;;;;;;;3.15;1.52;;;21.60;84.40;;;;;;10395551;28;20117;-69
2022/08/11 08:33:21;;;;;;;1.50;1.40;;;21.70;84.40;;;;;;10395476;28;20115;-67
2022/08/11 08:38:23;;;;;;;2.35;1.52;;;21.70;84.30;;;;;;10394436;28;20371;-68
2022/08/11 08:43:24;;;;;;;2.20;1.50;;;21.70;84.10;;;;;;10395645;28;20057;-68
2022/08/11 08:48:27;;;;;;;2.42;1.75;;;21.80;84.00;;;;;;10395549;28;20474;-67
2022/08/11 08:53:33;;;;;;;3.53;1.85;;;21.90;84.00;;;;;;10394202;28;20105;-67
2022/08/11 08:58:36;;;;;;;2.15;1.60;;;21.90;83.80;;;;;;10395524;28;20033;-68
2022/08/11 09:03:38;;;;;;;1.65;1.55;;;21.90;83.60;;;;;;10395348;28;20120;-66
2022/08/11 09:08:39;;;;;;;1.50;1.40;;;22.00;83.50;;;;;;10377753;28;20026;-67
2022/08/11 09:13:43;;;;;;;2.60;1.60;;;22.00;83.40;;;;;;10395550;28;20038;-67
2022/08/11 09:18:44;;;;;;;1.73;1.48;;;22.10;83.20;;;;;;10395486;28;20029;-67
2022/08/11 09:29:08;;;;;;;2.38;1.60;;;22.20;82.90;;;;;;10395303;28;20021;-68
2022/08/11 09:34:10;;;;;;;1.73;1.20;;;22.30;82.80;;;;;;10395032;28;20024;-68
2022/08/11 09:44:46;;;;;;;3.10;1.73;;;22.40;82.40;;;;;;10401033;28;20133;-67
2022/08/11 09:49:50;;;;;;;4.72;1.55;;;22.40;82.20;;;;;;10402289;28;20025;-67
2022/08/11 09:54:52;;;;;;;2.22;1.40;;;22.50;82.00;;;;;;10401268;28;20574;-67
2022/08/11 09:59:53;;;;;;;1.95;1.20;;;22.50;81.80;;;;;;10401552;28;20104;-66
2022/08/11 10:07:00;;;;;;;2.67;1.50;;;22.60;81.60;;;;;;10401142;28;20152;-68
2022/08/11 10:10:21;;;;;;;2.97;1.55;;;22.70;81.40;;;;;;10401069;28;20099;-67
2022/08/11 10:15:37;;;;;;;2.25;1.85;;;22.80;81.20;;;;;;10401160;28;20109;-67
2022/08/11 10:20:38;;;;;;;1.98;1.48;;;22.80;81.00;;;;;;10400600;28;20034;-68
2022/08/11 10:36:19;;;;;;;1.95;1.70;;;23.00;80.60;;;;;;10400330;28;20410;-68
2022/08/11 11:02:45;;;;;;;2.70;1.90;;;23.30;79.60;;;;;;10399383;28;20060;-67
2022/08/11 11:07:49;;;;;;;2.72;1.63;;;23.40;79.40;;;;;;10381366;28;20082;-67
2022/08/11 11:18:25;;;;;;;2.05;1.77;;;23.50;79.10;;;;;;10399226;28;20033;-67
2022/08/11 11:23:52;;;;;;;1.75;1.60;;;23.60;78.90;;;;;;10398837;28;20097;-66
2022/08/11 11:28:59;;;;;;;2.17;1.60;;;23.70;78.80;;;;;;10398688;28;20025;-66
2022/08/11 11:33:59;;;;;;;2.22;1.70;;;23.70;78.60;;;;;;10398406;28;20018;-68
2022/08/11 11:39:00;;;;;;;2.33;1.88;;;23.80;78.70;;;;;;10398484;28;20104;-67
2022/08/11 11:44:02;;;;;;;2.22;1.70;;;23.90;78.50;;;;;;10398056;28;20094;-67
2022/08/11 11:49:08;;;;;;;2.25;1.50;;;23.90;78.40;;;;;;10397818;28;20049;-67
2022/08/11 11:54:09;;;;;;;1.63;1.52;;;24.00;78.40;;;;;;10380526;28;20033;-67
2022/08/11 12:04:31;;;;;;;1.98;1.30;;;24.20;78.10;;;;;;10397184;28;20060;-67
2022/08/11 12:09:31;;;;;;;2.03;1.50;;;24.20;78.00;;;;;;10397378;28;20041;-66
2022/08/11 12:14:33;;;;;;;1.98;1.45;;;24.40;78.00;;;;;;10397283;28;20037;-67
2022/08/11 12:19:34;;;;;;;2.58;1.50;;;24.40;77.80;;;;;;10397467;28;20041;-67
2022/08/11 12:30:05;;;;;;;2.15;1.65;;;24.50;77.60;;;;;;10396795;28;20037;-67
2022/08/11 12:35:06;;;;;;;2.10;1.50;;;24.60;77.20;;;;;;10396911;28;20028;-68
2022/08/11 12:45:36;;;;;;;2.30;1.70;;;24.80;77.00;;;;;;10396238;28;20490;-67
2022/08/11 13:06:51;;;;;;;2.38;1.60;;;25.00;76.70;;;;;;10380626;28;20058;-64
2022/08/11 13:17:21;;;;;;;1.73;1.40;;;25.20;76.40;;;;;;10384251;28;20029;-64
2022/08/11 13:22:23;;;;;;;1.67;1.40;;;25.20;76.50;;;;;;10402879;28;20433;-65
2022/08/11 13:27:25;;;;;;;1.85;1.58;;;25.30;76.50;;;;;;10402286;28;20083;-65
2022/08/11 13:32:27;;;;;;;3.13;1.70;;;25.40;76.60;;;;;;10402540;28;20030;-64
2022/08/11 13:37:28;;;;;;;2.47;1.45;;;25.50;76.40;;;;;;10402146;28;20038;-64
2022/08/11 13:42:29;;;;;;;1.63;1.27;;;25.60;76.20;;;;;;10401927;28;20095;-64
2022/08/11 13:47:32;;;;;;;1.60;1.50;;;25.70;76.20;;;;;;10401806;28;20042;-64
2022/08/11 13:52:35;;;;;;;1.92;1.60;;;25.80;76.00;;;;;;10401663;28;20441;-66
2022/08/11 13:57:36;;;;;;;1.63;1.20;;;25.90;75.90;;;;;;10401622;28;20437;-64
2022/08/11 14:02:41;;;;;;;1.40;1.13;;;26.10;76.10;;;;;;10401570;28;20040;-64
2022/08/11 14:07:51;;;;;;;1.67;1.30;;;26.20;76.10;;;;;;10401093;28;20450;-64
2022/08/11 14:18:27;;;;;;;1.63;1.30;;;26.40;76.20;;;;;;10401194;28;20445;-64
2022/08/11 14:23:43;;;;;;;2.67;1.40;;;26.40;76.00;;;;;;10400759;28;20022;-64
2022/08/11 14:28:45;;;;;;;2.55;1.30;;;26.60;75.90;;;;;;10400302;28;20029;-65
2022/08/11 14:33:46;;;;;;;4.00;1.65;;;26.80;75.90;;;;;;10400085;28;20041;-69
2022/08/11 14:38:48;;;;;;;1.42;1.33;;;26.90;75.60;;;;;;10400607;28;20484;-68
2022/08/11 14:49:11;;;;;;;5.35;1.60;;;26.90;75.30;;;;;;10399990;28;20081;-69
2022/08/11 14:59:32;;;;;;;1.52;1.35;;;28.40;69.20;;;;;;10399649;28;20496;-64
2022/08/11 15:04:33;;;;;;;2.22;1.50;;;29.10;65.90;;;;;;10398327;28;20063;-65
2022/08/11 15:09:34;;;;;;;2.42;1.25;;;29.50;63.50;;;;;;10399286;28;20473;-65
2022/08/11 15:25:18;;;;;;;1.60;1.40;;;29.90;60.70;;;;;;10398488;28;20117;-65
2022/08/11 15:46:44;;;;;;;4.60;1.70;;;30.00;59.40;;;;;;10407568;28;20085;-64
2022/08/11 15:51:49;;;;;;;3.55;1.58;;;29.90;58.00;;;;;;10396849;28;20077;-65
2022/08/11 15:56:53;;;;;;;2.25;1.70;;;29.90;58.10;;;;;;10395319;28;20410;-64
2022/08/11 16:07:14;;;;;;;1.83;1.48;;;29.70;59.00;;;;;;10395190;28;20100;-64
2022/08/11 16:12:22;;;;;;;3.90;1.20;;;29.50;58.30;;;;;;10395159;28;20445;-65
2022/08/11 16:17:25;;;;;;;1.85;1.40;;;29.40;58.00;;;;;;10394908;28;20113;-64
2022/08/11 16:22:36;;;;;;;6.45;1.33;;;29.10;58.10;;;;;;10393728;28;20116;-64
2022/08/11 16:27:43;;;;;;;3.95;1.67;;;28.90;58.30;;;;;;10393588;28;20092;-64
2022/08/11 16:32:51;;;;;;;3.70;1.50;;;28.80;58.90;;;;;;10395320;28;20034;-64
2022/08/11 16:48:37;;;;;;;4.68;1.80;;;28.50;59.10;;;;;;10394626;28;20104;-65
2022/08/11 16:53:39;;;;;;;1.92;1.70;;;28.50;59.00;;;;;;10394647;28;20041;-65
2022/08/11 17:14:57;;;;;;;3.20;1.75;;;28.00;61.40;;;;;;10393723;28;20077;-66
2022/08/11 17:20:02;;;;;;;3.70;2.10;;;27.70;62.40;;;;;;10393395;28;20061;-67
2022/08/11 17:25:05;;;;;;;3.85;1.80;;;27.40;63.10;;;;;;10393185;28;20037;-67
2022/08/11 17:30:08;;;;;;;4.28;1.75;;;27.30;64.20;;;;;;10375851;28;20079;-67
2022/08/11 17:35:29;;;;;;;5.75;2.35;;;27.20;64.80;;;;;;10392942;28;20030;-67
2022/08/11 17:40:35;;;;;;;4.28;1.52;;;27.00;65.40;;;;;;10392399;28;20025;-67
2022/08/11 17:51:11;;;;;;;5.40;1.88;;;27.00;65.00;;;;;;10393736;28;20025;-66
2022/08/11 18:01:34;;;;;;;6.40;1.80;;;26.80;66.10;;;;;;10394879;28;20081;-67
2022/08/11 18:06:37;;;;;;;3.03;1.65;;;26.60;66.70;;;;;;10400087;28;20185;-66
